Time;durP1;ratioP1;P1;durP2;ratioP2;P2;SDS_P1;SDS_P2;PMS_P1;PMS_P2;Temp;Humidity;BMP_temperature;BMP_pressure;BME280_temperature;BME280_humidity;BME280_pressure;Samples;Min_cycle;Max_cycle;Signal;HPM_P1;HPM_P2
2023/04/15 00:02:17;;;;;;;11.90;6.80;;;;;;;;;;107691;1250;22574;-79
2023/04/15 00:04:44;;;;;;;13.20;8.10;;;;;;;;;;109019;1249;22252;-80
2023/04/15 00:07:11;;;;;;;13.40;8.60;;;;;;;;;;108017;1250;22511;-79
2023/04/15 00:09:37;;;;;;;12.10;7.50;;;;;;;;;;108760;1250;22624;-80
2023/04/15 00:12:04;;;;;;;23.30;14.40;;;;;;;;;;107814;1250;22514;-80
2023/04/15 00:14:30;;;;;;;18.10;10.60;;;;;;;;;;107736;1252;22535;-79
2023/04/15 00:16:57;;;;;;;15.70;9.90;;;;;;;;;;107769;1249;22524;-80
2023/04/15 00:19:24;;;;;;;10.00;6.80;;;;;;;;;;107695;1250;25511;-79
2023/04/15 00:21:50;;;;;;;20.70;12.50;;;;;;;;;;107733;1250;24126;-78
2023/04/15 00:24:17;;;;;;;12.00;9.40;;;;;;;;;;107731;1250;26498;-79
2023/04/15 00:26:43;;;;;;;28.50;16.60;;;;;;;;;;107782;1252;22508;-80
2023/04/15 00:29:09;;;;;;;22.00;13.80;;;;;;;;;;107729;1252;22518;-79
2023/04/15 00:31:36;;;;;;;23.70;15.40;;;;;;;;;;107721;1250;24202;-79
2023/04/15 00:34:02;;;;;;;23.40;17.90;;;;;;;;;;107768;1249;22518;-79
2023/04/15 00:36:29;;;;;;;24.90;14.80;;;;;;;;;;107894;1248;25263;-80
2023/04/15 00:38:55;;;;;;;21.20;16.60;;;;;;;;;;107755;1250;22512;-79
2023/04/15 00:41:21;;;;;;;21.30;16.10;;;;;;;;;;107722;1250;24219;-80
2023/04/15 00:43:48;;;;;;;21.90;14.50;;;;;;;;;;107765;1250;25576;-78
2023/04/15 00:46:14;;;;;;;22.60;14.90;;;;;;;;;;107728;1250;22523;-80
2023/04/15 00:48:41;;;;;;;23.00;16.90;;;;;;;;;;107883;1252;22546;-81
2023/04/15 00:51:08;;;;;;;19.50;13.20;;;;;;;;;;107861;1250;23039;-79
2023/04/15 00:53:34;;;;;;;21.00;12.90;;;;;;;;;;107748;1250;22574;-79
2023/04/15 00:56:01;;;;;;;26.10;16.70;;;;;;;;;;107718;1252;22538;-79
2023/04/15 00:58:27;;;;;;;17.60;10.50;;;;;;;;;;107660;1249;22529;-79
2023/04/15 01:00:54;;;;;;;19.60;12.30;;;;;;;;;;107700;1250;22518;-79
2023/04/15 01:03:20;;;;;;;23.20;14.80;;;;;;;;;;107738;1250;23102;-78
2023/04/15 01:05:47;;;;;;;13.80;10.20;;;;;;;;;;107740;1250;22530;-79
2023/04/15 01:08:13;;;;;;;19.30;11.00;;;;;;;;;;107717;1252;22517;-78
2023/04/15 01:10:40;;;;;;;26.00;15.70;;;;;;;;;;107723;1250;22518;-79
2023/04/15 01:13:06;;;;;;;20.00;14.30;;;;;;;;;;107711;1250;23001;-78
2023/04/15 01:15:34;;;;;;;14.40;11.50;;;;;;;;;;107757;1249;22524;-79
2023/04/15 01:18:01;;;;;;;12.90;11.50;;;;;;;;;;107756;1250;22638;-79
2023/04/15 01:20:28;;;;;;;12.60;11.30;;;;;;;;;;107754;1250;22970;-79
2023/04/15 01:22:54;;;;;;;12.70;11.40;;;;;;;;;;107701;1250;22541;-78
2023/04/15 01:25:31;;;;;;;15.10;11.90;;;;;;;;;;107789;1250;22519;-79
2023/04/15 01:27:58;;;;;;;15.40;10.80;;;;;;;;;;107738;1248;25330;-79
2023/04/15 01:30:25;;;;;;;24.30;14.20;;;;;;;;;;110143;1250;23265;-79
2023/04/15 01:32:52;;;;;;;20.70;12.30;;;;;;;;;;110907;1249;22346;-79
2023/04/15 01:35:18;;;;;;;12.90;9.90;;;;;;;;;;108668;1248;22543;-78
2023/04/15 01:37:45;;;;;;;13.60;10.10;;;;;;;;;;107719;1251;25328;-79
2023/04/15 01:40:12;;;;;;;18.10;11.30;;;;;;;;;;107903;1248;22525;-78
2023/04/15 01:42:39;;;;;;;16.80;11.90;;;;;;;;;;107750;1250;24436;-78
2023/04/15 01:45:06;;;;;;;15.00;9.10;;;;;;;;;;107732;1250;22647;-78
2023/04/15 01:47:32;;;;;;;10.60;9.20;;;;;;;;;;107737;1250;24921;-79
2023/04/15 01:49:58;;;;;;;11.50;9.10;;;;;;;;;;107708;1248;22536;-78
2023/04/15 01:52:25;;;;;;;13.10;11.90;;;;;;;;;;107705;1250;24188;-79
2023/04/15 01:54:51;;;;;;;16.70;10.60;;;;;;;;;;107718;1252;22537;-78
2023/04/15 01:57:17;;;;;;;13.90;9.90;;;;;;;;;;107727;1250;26338;-78
2023/04/15 01:59:44;;;;;;;12.40;9.80;;;;;;;;;;107549;1250;177693;-78
2023/04/15 02:02:10;;;;;;;8.70;7.80;;;;;;;;;;107904;1252;22686;-79
2023/04/15 02:04:36;;;;;;;8.70;6.20;;;;;;;;;;107903;1247;26484;-79
2023/04/15 02:07:03;;;;;;;10.80;8.50;;;;;;;;;;111028;1247;22343;-79
2023/04/15 02:09:29;;;;;;;10.70;7.40;;;;;;;;;;109460;1248;22538;-78
2023/04/15 02:11:56;;;;;;;13.40;10.20;;;;;;;;;;107954;1248;22556;-78
2023/04/15 02:14:22;;;;;;;13.40;7.60;;;;;;;;;;107958;1247;25084;-79
2023/04/15 02:16:48;;;;;;;15.30;11.10;;;;;;;;;;107927;1247;25437;-78
2023/04/15 02:19:15;;;;;;;13.10;9.80;;;;;;;;;;107898;1252;22515;-79
2023/04/15 02:21:41;;;;;;;13.30;9.50;;;;;;;;;;107848;1250;23180;-78
2023/04/15 02:24:08;;;;;;;16.30;10.60;;;;;;;;;;107792;1250;22544;-79
2023/04/15 02:26:34;;;;;;;15.40;12.60;;;;;;;;;;107785;1250;22522;-79
2023/04/15 02:29:00;;;;;;;18.70;16.70;;;;;;;;;;107764;1250;22579;-78
2023/04/15 02:31:27;;;;;;;19.00;15.50;;;;;;;;;;107752;1252;22639;-79
2023/04/15 02:33:53;;;;;;;17.20;12.60;;;;;;;;;;107715;1250;22629;-79
2023/04/15 02:36:20;;;;;;;13.60;10.00;;;;;;;;;;107773;1250;22661;-78
2023/04/15 02:38:46;;;;;;;11.40;8.40;;;;;;;;;;107729;1250;22552;-79
2023/04/15 02:41:13;;;;;;;12.50;8.10;;;;;;;;;;107728;1250;22507;-79
2023/04/15 02:43:39;;;;;;;12.60;9.50;;;;;;;;;;107734;1252;22539;-79
2023/04/15 02:46:05;;;;;;;14.90;9.70;;;;;;;;;;107765;1252;24496;-78
2023/04/15 02:48:32;;;;;;;12.50;8.40;;;;;;;;;;107757;1250;24271;-79
2023/04/15 02:51:11;;;;;;;18.00;10.90;;;;;;;;;;107754;1250;22534;-78
2023/04/15 02:53:37;;;;;;;16.40;12.70;;;;;;;;;;107733;1250;23027;-79
2023/04/15 02:56:05;;;;;;;11.00;9.10;;;;;;;;;;107706;1250;24230;-79
2023/04/15 02:58:33;;;;;;;15.30;11.00;;;;;;;;;;107644;1249;22536;-79
2023/04/15 03:01:00;;;;;;;22.30;16.70;;;;;;;;;;110815;1249;22407;-79
2023/04/15 03:03:27;;;;;;;18.90;10.90;;;;;;;;;;110851;1250;22176;-78
2023/04/15 03:05:53;;;;;;;36.10;21.20;;;;;;;;;;110872;1250;22307;-79
2023/04/15 03:08:20;;;;;;;23.20;14.20;;;;;;;;;;110866;1250;23040;-79
2023/04/15 03:10:47;;;;;;;11.30;6.70;;;;;;;;;;110368;1250;22607;-79
2023/04/15 03:13:13;;;;;;;8.90;4.50;;;;;;;;;;107758;1250;22515;-80
2023/04/15 03:15:39;;;;;;;9.40;4.30;;;;;;;;;;107736;1250;22931;-81
2023/04/15 03:18:06;;;;;;;5.90;4.80;;;;;;;;;;107763;1250;23076;-80
2023/04/15 03:20:32;;;;;;;8.00;5.00;;;;;;;;;;107770;1250;24241;-79
2023/04/15 03:22:59;;;;;;;9.20;4.50;;;;;;;;;;107786;1250;22614;-80
2023/04/15 03:25:25;;;;;;;9.50;6.40;;;;;;;;;;107743;1252;24117;-79
2023/04/15 03:27:52;;;;;;;9.30;6.40;;;;;;;;;;107704;1250;22633;-79
2023/04/15 03:30:18;;;;;;;12.50;7.60;;;;;;;;;;107714;1250;25489;-80
2023/04/15 03:32:45;;;;;;;14.30;9.60;;;;;;;;;;107705;1252;22521;-80
2023/04/15 03:35:11;;;;;;;14.80;10.40;;;;;;;;;;107782;1252;26533;-80
2023/04/15 03:37:37;;;;;;;16.90;9.40;;;;;;;;;;107731;1252;22693;-79
2023/04/15 03:40:04;;;;;;;17.90;11.80;;;;;;;;;;107770;1250;22573;-80
2023/04/15 03:42:30;;;;;;;15.90;10.90;;;;;;;;;;107736;1250;24192;-80
2023/04/15 03:44:57;;;;;;;24.20;15.30;;;;;;;;;;107887;1251;22545;-79
2023/04/15 03:47:23;;;;;;;38.70;22.60;;;;;;;;;;107695;1250;22546;-80
2023/04/15 03:49:49;;;;;;;24.50;15.60;;;;;;;;;;107737;1250;25331;-79
2023/04/15 03:52:16;;;;;;;22.70;14.00;;;;;;;;;;107706;1251;24190;-79
2023/04/15 03:54:42;;;;;;;18.30;11.70;;;;;;;;;;107754;1252;24426;-81
2023/04/15 03:57:10;;;;;;;24.30;14.40;;;;;;;;;;107699;1248;24246;-79
2023/04/15 03:59:36;;;;;;;22.00;13.90;;;;;;;;;;107717;1250;23273;-80
2023/04/15 04:02:02;;;;;;;21.10;9.90;;;;;;;;;;107907;1252;26528;-80
2023/04/15 04:04:29;;;;;;;14.40;8.30;;;;;;;;;;107912;1247;22515;-79
2023/04/15 04:06:55;;;;;;;16.20;9.20;;;;;;;;;;107916;1253;22638;-78
2023/04/15 04:09:21;;;;;;;12.70;7.80;;;;;;;;;;107893;1248;25457;-79
2023/04/15 04:11:48;;;;;;;8.30;6.10;;;;;;;;;;107748;1251;22518;-79
2023/04/15 04:14:14;;;;;;;9.80;7.40;;;;;;;;;;108375;1250;25327;-79
2023/04/15 04:16:40;;;;;;;10.30;7.30;;;;;;;;;;108345;1250;25275;-80
2023/04/15 04:19:07;;;;;;;12.80;8.10;;;;;;;;;;108360;1250;22558;-80
2023/04/15 04:21:33;;;;;;;13.80;9.80;;;;;;;;;;107691;1251;22531;-79
2023/04/15 04:23:59;;;;;;;13.10;8.60;;;;;;;;;;107729;1250;22493;-79
2023/04/15 04:26:26;;;;;;;13.30;9.80;;;;;;;;;;107744;1252;25508;-80
2023/04/15 04:28:52;;;;;;;17.00;7.90;;;;;;;;;;107676;1248;23578;-80
2023/04/15 04:31:19;;;;;;;17.60;7.40;;;;;;;;;;108073;1248;22521;-79
2023/04/15 04:33:45;;;;;;;8.60;5.80;;;;;;;;;;107901;1248;25356;-79
2023/04/15 04:36:11;;;;;;;15.50;8.20;;;;;;;;;;107761;1251;24255;-79
2023/04/15 04:38:38;;;;;;;15.10;8.00;;;;;;;;;;107751;1252;22544;-79
2023/04/15 04:41:04;;;;;;;9.80;5.70;;;;;;;;;;107709;1252;25343;-80
2023/04/15 04:43:31;;;;;;;10.20;6.40;;;;;;;;;;107712;1250;25377;-80
2023/04/15 04:45:57;;;;;;;7.40;4.50;;;;;;;;;;107723;1252;22520;-79
2023/04/15 04:48:23;;;;;;;9.10;4.80;;;;;;;;;;107724;1252;22519;-80
2023/04/15 04:50:50;;;;;;;10.00;5.20;;;;;;;;;;107697;1250;24224;-80
2023/04/15 04:53:17;;;;;;;7.00;4.70;;;;;;;;;;107722;1253;22524;-80
2023/04/15 04:55:43;;;;;;;15.10;10.20;;;;;;;;;;107705;1250;28473;-78
2023/04/15 04:58:10;;;;;;;15.20;9.80;;;;;;;;;;107641;1252;22535;-79
2023/04/15 05:00:37;;;;;;;15.50;9.80;;;;;;;;;;107610;1254;25504;-81
2023/04/15 05:03:03;;;;;;;14.70;9.10;;;;;;;;;;107694;1252;23258;-79
2023/04/15 05:05:30;;;;;;;17.10;11.50;;;;;;;;;;107689;1250;25835;-80
2023/04/15 05:07:56;;;;;;;17.10;8.90;;;;;;;;;;107725;1249;23903;-80
2023/04/15 05:10:22;;;;;;;14.80;9.80;;;;;;;;;;107739;1252;22673;-80
2023/04/15 05:12:50;;;;;;;14.50;7.90;;;;;;;;;;107722;1251;22534;-78
2023/04/15 05:15:17;;;;;;;11.40;6.40;;;;;;;;;;107775;1250;22602;-80
2023/04/15 05:17:43;;;;;;;9.60;6.00;;;;;;;;;;107754;1248;24968;-78
2023/04/15 05:20:10;;;;;;;10.40;5.60;;;;;;;;;;107754;1254;26425;-80
2023/04/15 05:22:37;;;;;;;12.90;5.60;;;;;;;;;;108311;1251;25507;-79
2023/04/15 05:25:03;;;;;;;20.50;10.30;;;;;;;;;;107753;1250;22550;-79
2023/04/15 05:27:30;;;;;;;32.00;17.80;;;;;;;;;;107797;1253;22522;-79
2023/04/15 05:29:56;;;;;;;18.20;11.90;;;;;;;;;;107754;1252;25054;-79
2023/04/15 05:32:22;;;;;;;13.20;8.80;;;;;;;;;;107721;1253;22568;-78
2023/04/15 05:34:49;;;;;;;18.60;7.50;;;;;;;;;;107752;1252;22562;-79
2023/04/15 05:37:15;;;;;;;9.60;6.10;;;;;;;;;;107729;1251;25508;-80
2023/04/15 05:39:41;;;;;;;14.60;6.70;;;;;;;;;;107815;1253;22528;-79
2023/04/15 05:42:08;;;;;;;11.90;5.40;;;;;;;;;;107746;1250;23031;-80
2023/04/15 05:44:35;;;;;;;8.40;5.70;;;;;;;;;;107726;1251;22544;-79
2023/04/15 05:47:02;;;;;;;12.00;5.20;;;;;;;;;;107903;1250;24205;-79
2023/04/15 05:49:28;;;;;;;11.10;5.50;;;;;;;;;;107724;1251;22559;-79
2023/04/15 05:51:55;;;;;;;7.50;4.10;;;;;;;;;;107728;1254;22521;-78
2023/04/15 05:54:22;;;;;;;7.90;4.40;;;;;;;;;;107715;1251;24244;-81
2023/04/15 05:56:48;;;;;;;6.70;3.80;;;;;;;;;;107699;1251;22643;-79
2023/04/15 05:59:15;;;;;;;8.10;4.00;;;;;;;;;;107660;1253;22593;-79
2023/04/15 06:01:41;;;;;;;7.80;4.80;;;;;;;;;;107760;1252;22526;-81
2023/04/15 06:04:08;;;;;;;4.90;3.10;;;;;;;;;;107660;1249;24244;-79
2023/04/15 06:06:34;;;;;;;6.90;3.50;;;;;;;;;;107656;1253;26423;-79
2023/04/15 06:09:01;;;;;;;6.50;4.00;;;;;;;;;;107662;1254;22519;-78
2023/04/15 06:11:27;;;;;;;5.80;3.30;;;;;;;;;;107739;1248;25305;-79
2023/04/15 06:13:53;;;;;;;7.40;3.50;;;;;;;;;;107692;1251;22638;-80
2023/04/15 06:16:20;;;;;;;12.50;8.90;;;;;;;;;;107709;1254;25382;-79
2023/04/15 06:18:46;;;;;;;11.70;6.40;;;;;;;;;;107715;1252;22979;-79
2023/04/15 06:21:12;;;;;;;6.40;4.30;;;;;;;;;;107699;1253;23299;-79
2023/04/15 06:23:40;;;;;;;4.60;2.60;;;;;;;;;;107643;1253;22525;-80
2023/04/15 06:26:06;;;;;;;4.60;2.60;;;;;;;;;;107687;1251;24226;-80
2023/04/15 06:28:33;;;;;;;7.50;3.50;;;;;;;;;;107633;1251;22863;-79
2023/04/15 06:31:00;;;;;;;4.60;2.50;;;;;;;;;;107722;1251;25512;-79
2023/04/15 06:33:27;;;;;;;8.80;3.70;;;;;;;;;;107682;1251;24178;-80
2023/04/15 06:35:53;;;;;;;5.00;2.60;;;;;;;;;;107721;1253;22532;-80
2023/04/15 06:38:20;;;;;;;3.60;1.50;;;;;;;;;;107676;1252;24435;-79
2023/04/15 06:40:46;;;;;;;2.60;1.60;;;;;;;;;;107677;1252;25171;-80
2023/04/15 06:43:12;;;;;;;4.80;2.10;;;;;;;;;;107737;1253;22556;-80
2023/04/15 06:45:39;;;;;;;2.80;1.90;;;;;;;;;;107732;1251;22680;-80
2023/04/15 06:48:05;;;;;;;3.50;1.80;;;;;;;;;;107705;1251;25301;-80
2023/04/15 06:50:32;;;;;;;3.40;1.80;;;;;;;;;;107705;1253;22534;-79
2023/04/15 06:52:59;;;;;;;6.50;2.30;;;;;;;;;;107654;1250;23223;-81
2023/04/15 06:55:26;;;;;;;8.40;4.10;;;;;;;;;;107673;1253;22541;-80
2023/04/15 06:57:52;;;;;;;4.70;2.00;;;;;;;;;;107698;1251;22659;-80
2023/04/15 07:00:19;;;;;;;2.60;1.80;;;;;;;;;;107703;1249;22495;-79
2023/04/15 07:02:46;;;;;;;2.40;1.30;;;;;;;;;;107767;1253;25218;-80
2023/04/15 07:05:12;;;;;;;2.30;1.60;;;;;;;;;;108290;1253;22544;-80
2023/04/15 07:07:39;;;;;;;4.00;2.00;;;;;;;;;;107681;1250;24187;-81
2023/04/15 07:10:06;;;;;;;4.70;1.40;;;;;;;;;;107683;1252;23061;-81
2023/04/15 07:12:32;;;;;;;3.20;1.40;;;;;;;;;;107705;1248;22527;-81
2023/04/15 07:14:58;;;;;;;2.50;1.10;;;;;;;;;;108167;1251;23043;-78
2023/04/15 07:17:25;;;;;;;1.80;1.20;;;;;;;;;;107688;1253;23120;-77
2023/04/15 07:19:51;;;;;;;2.60;1.40;;;;;;;;;;107695;1253;22536;-79
2023/04/15 07:22:17;;;;;;;2.90;1.70;;;;;;;;;;107690;1251;23084;-78
2023/04/15 07:24:44;;;;;;;3.00;1.40;;;;;;;;;;107758;1250;25498;-78
2023/04/15 07:27:11;;;;;;;4.60;1.30;;;;;;;;;;107710;1253;22686;-79
2023/04/15 07:29:37;;;;;;;3.20;1.50;;;;;;;;;;107687;1250;22529;-79
2023/04/15 07:32:03;;;;;;;5.80;4.20;;;;;;;;;;107636;1250;22969;-79
2023/04/15 07:34:30;;;;;;;2.20;1.30;;;;;;;;;;107703;1251;22559;-78
2023/04/15 07:36:56;;;;;;;3.10;1.50;;;;;;;;;;107719;1248;25443;-78
2023/04/15 07:39:23;;;;;;;2.50;1.30;;;;;;;;;;107652;1253;24198;-80
2023/04/15 07:41:49;;;;;;;1.50;1.00;;;;;;;;;;107701;1252;22651;-78
2023/04/15 07:44:16;;;;;;;2.80;1.30;;;;;;;;;;107681;1251;22525;-80
2023/04/15 07:46:42;;;;;;;2.90;1.20;;;;;;;;;;107731;1252;22592;-79
2023/04/15 07:49:08;;;;;;;2.10;1.10;;;;;;;;;;107668;1248;24190;-78
2023/04/15 07:51:36;;;;;;;7.30;1.20;;;;;;;;;;107729;1252;23784;-79
2023/04/15 07:54:03;;;;;;;1.30;0.90;;;;;;;;;;107715;1248;22602;-79
2023/04/15 07:56:29;;;;;;;4.70;1.10;;;;;;;;;;107773;1251;23286;-79
2023/04/15 07:58:55;;;;;;;2.20;0.80;;;;;;;;;;107732;1252;25669;-79
2023/04/15 08:01:22;;;;;;;1.90;1.30;;;;;;;;;;107713;1252;25256;-79
2023/04/15 08:03:49;;;;;;;4.10;2.50;;;;;;;;;;107772;1251;22563;-77
2023/04/15 08:06:16;;;;;;;3.00;2.20;;;;;;;;;;107742;1251;25252;-78
2023/04/15 08:08:42;;;;;;;3.60;2.50;;;;;;;;;;107844;1248;25265;-77
2023/04/15 08:11:09;;;;;;;6.00;1.70;;;;;;;;;;107824;1253;22672;-80
2023/04/15 08:13:35;;;;;;;3.90;2.10;;;;;;;;;;108040;1248;24183;-79
2023/04/15 08:16:12;;;;;;;3.70;1.40;;;;;;;;;;107988;1251;24190;-82
2023/04/15 08:18:38;;;;;;;5.00;3.50;;;;;;;;;;107746;1249;25220;-79
2023/04/15 08:21:05;;;;;;;5.10;2.20;;;;;;;;;;107810;1251;22534;-82
2023/04/15 08:23:32;;;;;;;10.50;7.80;;;;;;;;;;107834;1250;23250;-80
2023/04/15 08:25:58;;;;;;;3.00;2.30;;;;;;;;;;107866;1248;24362;-79
2023/04/15 08:28:25;;;;;;;1.80;1.20;;;;;;;;;;107823;1247;25277;-80
2023/04/15 08:30:51;;;;;;;4.70;2.20;;;;;;;;;;107659;1251;25241;-80
2023/04/15 08:33:18;;;;;;;2.90;1.50;;;;;;;;;;107667;1253;22660;-78
2023/04/15 08:35:44;;;;;;;3.30;1.80;;;;;;;;;;107703;1251;24256;-78
2023/04/15 08:38:10;;;;;;;5.90;2.70;;;;;;;;;;107635;1250;24273;-78
2023/04/15 08:40:40;;;;;;;10.30;5.40;;;;;;;;;;107646;1251;22741;-78
2023/04/15 08:43:08;;;;;;;10.40;7.00;;;;;;;;;;107713;1253;22514;-80
2023/04/15 08:45:35;;;;;;;4.90;3.10;;;;;;;;;;107763;1251;22977;-78
2023/04/15 08:48:01;;;;;;;4.20;2.10;;;;;;;;;;107708;1248;23708;-79
2023/04/15 08:50:27;;;;;;;12.00;7.10;;;;;;;;;;107656;1252;22519;-79
2023/04/15 08:52:54;;;;;;;7.70;4.00;;;;;;;;;;107681;1251;25290;-78
2023/04/15 08:55:20;;;;;;;3.20;2.10;;;;;;;;;;107698;1253;22586;-78
2023/04/15 08:57:47;;;;;;;5.10;2.60;;;;;;;;;;107720;1248;26450;-79
2023/04/15 09:00:13;;;;;;;7.60;4.20;;;;;;;;;;107928;1251;25542;-79
2023/04/15 09:02:40;;;;;;;8.40;3.10;;;;;;;;;;107744;1251;22536;-78
2023/04/15 09:05:07;;;;;;;7.40;3.40;;;;;;;;;;107815;1249;23408;-80
2023/04/15 09:07:35;;;;;;;10.60;2.60;;;;;;;;;;107774;1251;22600;-78
2023/04/15 09:10:02;;;;;;;3.50;2.30;;;;;;;;;;107781;1251;22627;-79
2023/04/15 09:12:30;;;;;;;3.20;1.80;;;;;;;;;;107769;1251;25362;-79
2023/04/15 09:14:57;;;;;;;5.80;2.60;;;;;;;;;;107683;1248;25263;-80
2023/04/15 09:17:25;;;;;;;8.00;4.10;;;;;;;;;;107632;1249;22585;-79
2023/04/15 09:20:06;;;;;;;5.80;2.00;;;;;;;;;;107730;1252;22518;-80
2023/04/15 09:22:32;;;;;;;8.10;2.00;;;;;;;;;;107637;1251;24277;-80
2023/04/15 09:24:59;;;;;;;6.10;2.10;;;;;;;;;;107769;1250;22856;-78
2023/04/15 09:27:25;;;;;;;4.10;2.10;;;;;;;;;;107696;1251;22524;-80
2023/04/15 09:29:52;;;;;;;3.30;1.90;;;;;;;;;;107795;1251;25311;-78
2023/04/15 09:32:20;;;;;;;2.00;1.30;;;;;;;;;;107778;1248;22536;-78
2023/04/15 09:34:46;;;;;;;2.70;1.30;;;;;;;;;;107768;1250;22525;-79
2023/04/15 09:37:15;;;;;;;2.40;1.40;;;;;;;;;;107672;1249;23249;-78
2023/04/15 09:39:48;;;;;;;4.70;1.60;;;;;;;;;;107832;1252;22676;-78
2023/04/15 09:42:16;;;;;;;14.30;7.20;;;;;;;;;;107740;1252;25365;-78
2023/04/15 09:44:43;;;;;;;5.30;2.30;;;;;;;;;;107776;1250;25285;-78
2023/04/15 09:47:11;;;;;;;2.70;1.40;;;;;;;;;;107739;1251;22642;-78
2023/04/15 09:49:37;;;;;;;4.80;1.30;;;;;;;;;;107765;1250;22602;-78
2023/04/15 09:52:04;;;;;;;7.30;3.70;;;;;;;;;;107769;1251;22565;-78
2023/04/15 09:54:35;;;;;;;3.40;1.70;;;;;;;;;;107764;1251;25375;-79
2023/04/15 09:57:05;;;;;;;4.60;2.00;;;;;;;;;;107749;1251;22517;-79
2023/04/15 09:59:31;;;;;;;2.60;1.60;;;;;;;;;;107726;1250;25295;-79
2023/04/15 10:01:58;;;;;;;4.00;1.70;;;;;;;;;;107764;1250;22602;-80
2023/04/15 10:04:24;;;;;;;5.90;2.40;;;;;;;;;;107822;1251;22616;-79
2023/04/15 10:06:50;;;;;;;8.30;2.00;;;;;;;;;;107657;1250;22534;-79
2023/04/15 10:09:17;;;;;;;4.70;2.00;;;;;;;;;;107816;1248;23812;-78
2023/04/15 10:11:43;;;;;;;3.60;1.80;;;;;;;;;;107803;1248;23312;-79
2023/04/15 10:14:10;;;;;;;3.30;1.80;;;;;;;;;;107753;1249;22539;-78
2023/04/15 10:16:36;;;;;;;3.50;2.00;;;;;;;;;;107679;1248;22994;-80
2023/04/15 10:19:03;;;;;;;3.90;1.80;;;;;;;;;;107787;1251;22522;-79
2023/04/15 10:21:29;;;;;;;2.40;1.90;;;;;;;;;;107809;1249;22534;-78
2023/04/15 10:23:55;;;;;;;2.90;1.90;;;;;;;;;;107800;1250;25471;-79
2023/04/15 10:26:22;;;;;;;3.00;2.00;;;;;;;;;;107858;1250;22551;-77
2023/04/15 10:28:48;;;;;;;2.90;2.00;;;;;;;;;;107853;1252;22523;-78
2023/04/15 10:31:15;;;;;;;4.00;2.60;;;;;;;;;;107880;1251;24272;-78
2023/04/15 10:33:42;;;;;;;5.60;2.20;;;;;;;;;;107747;1248;22943;-79
2023/04/15 10:36:08;;;;;;;3.30;2.10;;;;;;;;;;107979;1249;22522;-80
2023/04/15 10:38:38;;;;;;;3.90;2.00;;;;;;;;;;107797;1253;22528;-79
2023/04/15 10:41:15;;;;;;;2.70;2.10;;;;;;;;;;107741;1248;24269;-79
2023/04/15 10:43:45;;;;;;;3.90;2.30;;;;;;;;;;107966;1249;25436;-79
2023/04/15 10:46:12;;;;;;;3.00;1.90;;;;;;;;;;107830;1250;22523;-79
2023/04/15 10:48:38;;;;;;;9.40;4.70;;;;;;;;;;107805;1249;22527;-79
2023/04/15 10:51:04;;;;;;;6.40;3.10;;;;;;;;;;107892;1248;26373;-79
2023/04/15 10:53:31;;;;;;;3.30;2.10;;;;;;;;;;107860;1250;25306;-79
2023/04/15 10:55:57;;;;;;;6.80;4.20;;;;;;;;;;107672;1253;22639;-79
2023/04/15 10:58:24;;;;;;;2.80;2.30;;;;;;;;;;107837;1250;24919;-78
2023/04/15 11:00:52;;;;;;;4.10;3.30;;;;;;;;;;107838;1250;23917;-80
2023/04/15 11:03:37;;;;;;;3.60;2.40;;;;;;;;;;107835;1250;22518;-79
2023/04/15 11:06:05;;;;;;;5.50;3.70;;;;;;;;;;107834;1251;22517;-79
2023/04/15 11:08:51;;;;;;;4.60;2.80;;;;;;;;;;107847;1250;25421;-79
2023/04/15 11:11:18;;;;;;;5.00;2.50;;;;;;;;;;107830;1249;25457;-80
2023/04/15 11:13:49;;;;;;;3.40;2.10;;;;;;;;;;107795;1249;22531;-79
2023/04/15 11:16:15;;;;;;;3.00;1.40;;;;;;;;;;107604;1250;26786;-79
2023/04/15 11:18:42;;;;;;;2.70;1.60;;;;;;;;;;107638;1248;22520;-79
2023/04/15 11:21:09;;;;;;;2.70;1.70;;;;;;;;;;107833;1253;22521;-79
2023/04/15 11:23:47;;;;;;;2.50;1.90;;;;;;;;;;107734;1252;25197;-80
2023/04/15 11:26:14;;;;;;;2.70;1.90;;;;;;;;;;107944;1251;22535;-79
2023/04/15 11:28:41;;;;;;;3.90;1.90;;;;;;;;;;108029;1248;23113;-80
2023/04/15 11:31:10;;;;;;;4.70;2.40;;;;;;;;;;108003;1249;22580;-80
2023/04/15 11:33:36;;;;;;;3.80;2.50;;;;;;;;;;109245;1249;23279;-78
2023/04/15 11:36:03;;;;;;;4.80;3.00;;;;;;;;;;107721;1248;26206;-79
2023/04/15 11:38:30;;;;;;;4.50;3.00;;;;;;;;;;107691;1250;25297;-79
2023/04/15 11:40:56;;;;;;;6.90;5.50;;;;;;;;;;107635;1250;25385;-79
2023/04/15 11:43:23;;;;;;;9.00;5.60;;;;;;;;;;107626;1250;22824;-79
2023/04/15 11:45:50;;;;;;;7.80;4.90;;;;;;;;;;107645;1248;22527;-78
2023/04/15 11:48:17;;;;;;;4.80;3.10;;;;;;;;;;107567;1249;25530;-79
2023/04/15 11:50:44;;;;;;;50.40;30.40;;;;;;;;;;107561;1249;25068;-79
2023/04/15 11:53:10;;;;;;;17.20;10.80;;;;;;;;;;107610;1249;22872;-78
2023/04/15 11:55:41;;;;;;;6.40;3.40;;;;;;;;;;107606;1250;22516;-79
2023/04/15 11:58:18;;;;;;;18.70;10.70;;;;;;;;;;107592;1249;22521;-79
2023/04/15 12:00:46;;;;;;;5.60;3.70;;;;;;;;;;107983;1249;22566;-79
2023/04/15 12:03:17;;;;;;;4.30;3.30;;;;;;;;;;108121;1249;23541;-79
2023/04/15 12:06:16;;;;;;;3.30;2.20;;;;;;;;;;108100;1249;24348;-80
2023/04/15 12:08:54;;;;;;;5.40;3.00;;;;;;;;;;107910;1250;25230;-79
2023/04/15 12:11:30;;;;;;;6.40;2.70;;;;;;;;;;108117;1249;22645;-79
2023/04/15 12:14:03;;;;;;;4.50;2.40;;;;;;;;;;108069;1249;23230;-79
2023/04/15 12:16:30;;;;;;;6.60;3.40;;;;;;;;;;108073;1248;22538;-80
2023/04/15 12:18:57;;;;;;;4.30;2.10;;;;;;;;;;108104;1252;22532;-79
2023/04/15 12:21:25;;;;;;;3.40;3.00;;;;;;;;;;108129;1249;23149;-80
2023/04/15 12:23:52;;;;;;;4.30;2.70;;;;;;;;;;107633;1249;22538;-79
2023/04/15 12:26:26;;;;;;;6.40;2.80;;;;;;;;;;107565;1249;22526;-80
2023/04/15 12:28:53;;;;;;;13.20;3.40;;;;;;;;;;107589;1247;25315;-80
2023/04/15 12:31:19;;;;;;;5.80;2.90;;;;;;;;;;107677;1248;23077;-79
2023/04/15 12:33:47;;;;;;;6.90;3.20;;;;;;;;;;107618;1248;23298;-79
2023/04/15 12:36:13;;;;;;;5.30;2.40;;;;;;;;;;107590;1248;24261;-79
2023/04/15 12:38:40;;;;;;;8.30;3.60;;;;;;;;;;107589;1250;22542;-80
2023/04/15 12:41:06;;;;;;;4.50;2.60;;;;;;;;;;107673;1252;25322;-79
2023/04/15 12:43:32;;;;;;;4.80;2.50;;;;;;;;;;107595;1252;23072;-80
2023/04/15 12:45:59;;;;;;;6.40;2.60;;;;;;;;;;107626;1249;23267;-79
2023/04/15 12:48:25;;;;;;;7.20;3.90;;;;;;;;;;107635;1252;22572;-80
2023/04/15 12:50:51;;;;;;;5.60;2.70;;;;;;;;;;107521;1250;22517;-80
2023/04/15 12:53:18;;;;;;;3.50;2.70;;;;;;;;;;107656;1249;22567;-80
2023/04/15 12:55:44;;;;;;;7.40;3.80;;;;;;;;;;107580;1252;22921;-81
2023/04/15 12:58:10;;;;;;;4.80;3.50;;;;;;;;;;107658;1249;22530;-79
2023/04/15 13:00:37;;;;;;;6.80;4.80;;;;;;;;;;108057;1250;22578;-80
2023/04/15 13:03:03;;;;;;;6.40;3.40;;;;;;;;;;108142;1251;26440;-80
2023/04/15 13:05:30;;;;;;;4.30;2.60;;;;;;;;;;108156;1247;24347;-80
2023/04/15 13:07:56;;;;;;;8.60;5.60;;;;;;;;;;107960;1247;22628;-80
2023/04/15 13:10:23;;;;;;;3.60;2.30;;;;;;;;;;108194;1247;22649;-80
2023/04/15 13:12:52;;;;;;;4.30;2.50;;;;;;;;;;108116;1248;22850;-80
2023/04/15 13:15:20;;;;;;;3.70;2.30;;;;;;;;;;108064;1249;25464;-79
2023/04/15 13:17:46;;;;;;;4.50;3.00;;;;;;;;;;108054;1250;25404;-80
2023/04/15 13:20:13;;;;;;;4.60;3.10;;;;;;;;;;108032;1249;22646;-79
2023/04/15 13:22:39;;;;;;;4.60;2.40;;;;;;;;;;108079;1250;25381;-80
2023/04/15 13:25:06;;;;;;;5.00;2.50;;;;;;;;;;108091;1249;24362;-80
2023/04/15 13:27:32;;;;;;;5.10;2.80;;;;;;;;;;108060;1250;22548;-80
2023/04/15 13:29:59;;;;;;;4.00;2.40;;;;;;;;;;108008;1249;22546;-79
2023/04/15 13:32:25;;;;;;;4.90;3.60;;;;;;;;;;107958;1251;22651;-80
2023/04/15 13:34:53;;;;;;;14.80;8.10;;;;;;;;;;107942;1248;22531;-81
2023/04/15 13:37:19;;;;;;;5.80;2.90;;;;;;;;;;108029;1252;25518;-80
2023/04/15 13:39:46;;;;;;;5.30;3.20;;;;;;;;;;107597;1248;22517;-80
2023/04/15 13:42:12;;;;;;;3.50;2.10;;;;;;;;;;107568;1249;22632;-80
2023/04/15 13:44:39;;;;;;;3.20;2.10;;;;;;;;;;107628;1249;25391;-79
2023/04/15 13:47:05;;;;;;;9.60;5.90;;;;;;;;;;107559;1250;25950;-80
2023/04/15 13:49:32;;;;;;;5.90;4.20;;;;;;;;;;107602;1253;25913;-80
2023/04/15 13:51:58;;;;;;;5.30;3.10;;;;;;;;;;107612;1250;22745;-81
2023/04/15 13:54:25;;;;;;;4.90;3.60;;;;;;;;;;107633;1248;22533;-80
2023/04/15 13:56:53;;;;;;;2.90;2.20;;;;;;;;;;108046;1249;24128;-80
2023/04/15 13:59:20;;;;;;;7.30;3.30;;;;;;;;;;107916;1248;155153;-80
2023/04/15 14:01:46;;;;;;;4.20;2.50;;;;;;;;;;108037;1250;25493;-80
2023/04/15 14:04:13;;;;;;;7.90;3.10;;;;;;;;;;107934;1249;22518;-80
2023/04/15 14:06:39;;;;;;;6.60;2.60;;;;;;;;;;108062;1249;25259;-80
2023/04/15 14:09:06;;;;;;;6.10;2.70;;;;;;;;;;108046;1249;22518;-80
2023/04/15 14:11:34;;;;;;;4.40;3.10;;;;;;;;;;108072;1250;22529;-80
2023/04/15 14:14:00;;;;;;;11.10;7.60;;;;;;;;;;108148;1248;23208;-80
2023/04/15 14:16:27;;;;;;;6.30;4.10;;;;;;;;;;108044;1250;23255;-80
2023/04/15 14:18:53;;;;;;;4.50;3.40;;;;;;;;;;108100;1247;22558;-80
2023/04/15 14:21:20;;;;;;;5.50;4.60;;;;;;;;;;108161;1252;22538;-81